Time;durP1;ratioP1;P1;durP2;ratioP2;P2;SDS_P1;SDS_P2;PMS_P1;PMS_P2;Temp;Humidity;BMP_temperature;BMP_pressure;BME280_temperature;BME280_humidity;BME280_pressure;Samples;Min_cycle;Max_cycle;Signal;HPM_P1;HPM_P2
2021/12/19 00:00:48;;;;;;;22.65;12.43;;;;;;;;;;5015140;28;20499;-79
2021/12/19 00:08:57;;;;;;;20.08;13.13;;;;;;;;;;4984731;28;20376;-79
2021/12/19 00:11:26;;;;;;;19.35;11.65;;;;;;;;;;5014011;28;20040;-79
2021/12/19 00:13:53;;;;;;;20.38;12.50;;;;;;;;;;5013391;28;20069;-80
2021/12/19 00:16:20;;;;;;;21.33;12.52;;;;;;;;;;5014316;28;20526;-79
2021/12/19 00:18:47;;;;;;;22.23;11.23;;;;;;;;;;5015463;28;20028;-79
2021/12/19 00:21:17;;;;;;;22.48;11.77;;;;;;;;;;5013148;28;20022;-79
2021/12/19 00:23:44;;;;;;;19.95;11.77;;;;;;;;;;5015042;28;20036;-79
2021/12/19 00:26:10;;;;;;;23.90;13.35;;;;;;;;;;5014026;28;20049;-79
2021/12/19 00:28:36;;;;;;;20.65;12.20;;;;;;;;;;5013859;28;20128;-79
2021/12/19 00:31:03;;;;;;;22.25;12.45;;;;;;;;;;5014717;28;20080;-79
2021/12/19 00:33:29;;;;;;;20.20;12.88;;;;;;;;;;5013686;28;20113;-78
2021/12/19 00:35:55;;;;;;;20.63;11.77;;;;;;;;;;5014889;28;20447;-79
2021/12/19 00:38:21;;;;;;;22.83;13.02;;;;;;;;;;5019153;28;20466;-81
2021/12/19 00:40:47;;;;;;;21.48;12.23;;;;;;;;;;5019043;28;20034;-79
2021/12/19 00:43:24;;;;;;;27.67;13.95;;;;;;;;;;5017127;28;20061;-79
2021/12/19 00:45:52;;;;;;;19.60;11.73;;;;;;;;;;5012497;28;20022;-79
2021/12/19 00:48:18;;;;;;;22.45;12.40;;;;;;;;;;5016217;28;20059;-80
2021/12/19 00:50:44;;;;;;;17.92;11.20;;;;;;;;;;5019095;28;20040;-79
2021/12/19 00:53:10;;;;;;;20.48;12.23;;;;;;;;;;5017241;28;20022;-80
2021/12/19 00:55:37;;;;;;;20.45;11.85;;;;;;;;;;5018260;28;20112;-81
2021/12/19 00:58:05;;;;;;;19.60;11.25;;;;;;;;;;5018417;28;20053;-81
2021/12/19 01:00:32;;;;;;;21.80;13.63;;;;;;;;;;5018530;28;20030;-80
2021/12/19 01:03:00;;;;;;;22.10;12.68;;;;;;;;;;5018440;28;20026;-80
2021/12/19 01:05:30;;;;;;;21.48;12.15;;;;;;;;;;5017820;28;20025;-81
2021/12/19 01:07:56;;;;;;;21.08;12.48;;;;;;;;;;5017964;28;20476;-80
2021/12/19 01:10:22;;;;;;;22.02;12.25;;;;;;;;;;5016766;28;20489;-80
2021/12/19 01:12:48;;;;;;;20.80;12.52;;;;;;;;;;5017288;28;20026;-80
2021/12/19 01:15:16;;;;;;;22.08;12.40;;;;;;;;;;5016519;28;20030;-80
2021/12/19 01:17:42;;;;;;;25.15;14.32;;;;;;;;;;5016528;28;20018;-80
2021/12/19 01:20:10;;;;;;;23.92;13.68;;;;;;;;;;5017525;28;20022;-81
2021/12/19 01:22:36;;;;;;;24.83;13.10;;;;;;;;;;5017044;28;20057;-79
2021/12/19 01:25:03;;;;;;;20.92;12.48;;;;;;;;;;5018890;28;20483;-81
2021/12/19 01:27:29;;;;;;;24.02;13.27;;;;;;;;;;5018114;28;20030;-80
2021/12/19 01:29:55;;;;;;;21.75;12.63;;;;;;;;;;5018119;28;20079;-80
2021/12/19 01:32:21;;;;;;;22.48;13.15;;;;;;;;;;5016518;28;20041;-79
2021/12/19 01:34:47;;;;;;;23.88;12.75;;;;;;;;;;5016127;28;20029;-80
2021/12/19 01:37:13;;;;;;;22.15;12.85;;;;;;;;;;5016665;28;20033;-79
2021/12/19 01:39:39;;;;;;;26.77;13.10;;;;;;;;;;5015272;28;20020;-79
2021/12/19 01:42:09;;;;;;;21.92;12.07;;;;;;;;;;5016042;28;20037;-79
2021/12/19 01:44:35;;;;;;;22.70;12.57;;;;;;;;;;5005589;28;20026;-79
2021/12/19 01:47:01;;;;;;;24.60;15.38;;;;;;;;;;5014643;28;20560;-79
2021/12/19 01:49:27;;;;;;;20.75;12.27;;;;;;;;;;5015728;28;20398;-80
2021/12/19 01:51:53;;;;;;;22.67;13.63;;;;;;;;;;5014868;28;20137;-79
2021/12/19 01:54:19;;;;;;;25.77;13.80;;;;;;;;;;5014938;28;20051;-78
2021/12/19 01:56:45;;;;;;;24.08;13.63;;;;;;;;;;5014575;28;20022;-79
2021/12/19 01:59:12;;;;;;;23.70;14.20;;;;;;;;;;5016534;28;20045;-81
2021/12/19 02:01:48;;;;;;;25.17;13.55;;;;;;;;;;5016301;28;20045;-79
2021/12/19 02:04:15;;;;;;;23.75;12.90;;;;;;;;;;5015689;28;20026;-78
2021/12/19 02:06:41;;;;;;;25.88;13.15;;;;;;;;;;5016563;28;20394;-79
2021/12/19 02:09:08;;;;;;;25.40;13.05;;;;;;;;;;5016337;28;20036;-79
2021/12/19 02:11:35;;;;;;;22.60;13.32;;;;;;;;;;5015329;28;20025;-78
2021/12/19 02:14:01;;;;;;;22.15;12.82;;;;;;;;;;5015013;28;20022;-78
2021/12/19 02:16:28;;;;;;;26.02;13.60;;;;;;;;;;5015685;28;20018;-78
2021/12/19 02:18:54;;;;;;;21.95;14.02;;;;;;;;;;5012753;28;20080;-79
2021/12/19 02:21:20;;;;;;;22.73;12.05;;;;;;;;;;5014928;28;20030;-80
2021/12/19 02:23:46;;;;;;;24.13;13.80;;;;;;;;;;5014464;28;20152;-78
2021/12/19 02:26:16;;;;;;;23.13;12.80;;;;;;;;;;5013791;28;20057;-79
2021/12/19 02:28:42;;;;;;;23.58;13.82;;;;;;;;;;5015675;28;20118;-78
2021/12/19 02:31:08;;;;;;;27.85;14.70;;;;;;;;;;5016131;28;20033;-79
2021/12/19 02:33:39;;;;;;;26.20;13.10;;;;;;;;;;5014473;28;20026;-78
2021/12/19 02:36:21;;;;;;;26.38;14.18;;;;;;;;;;5014723;28;20026;-80
2021/12/19 02:49:45;;;;;;;22.95;12.73;;;;;;;;;;5013866;28;20073;-80
2021/12/19 02:52:12;;;;;;;21.88;11.80;;;;;;;;;;5015632;28;20055;-79
2021/12/19 02:54:38;;;;;;;25.17;13.48;;;;;;;;;;5015057;28;20480;-79
2021/12/19 02:57:04;;;;;;;26.38;14.63;;;;;;;;;;5014662;28;20554;-78
2021/12/19 02:59:32;;;;;;;25.10;14.38;;;;;;;;;;5013354;28;20136;-78
2021/12/19 03:01:58;;;;;;;27.27;13.32;;;;;;;;;;5013327;28;20069;-78
2021/12/19 03:04:24;;;;;;;22.90;13.55;;;;;;;;;;5015878;28;20163;-79
2021/12/19 03:06:50;;;;;;;24.88;13.75;;;;;;;;;;5015948;28;20057;-79
2021/12/19 03:09:58;;;;;;;25.05;14.18;;;;;;;;;;5015483;28;20033;-79
2021/12/19 03:17:58;;;;;;;26.38;13.00;;;;;;;;;;4954576;28;20485;-78
2021/12/19 03:20:24;;;;;;;23.80;13.32;;;;;;;;;;4954784;29;20059;-78
2021/12/19 03:22:50;;;;;;;22.83;12.10;;;;;;;;;;4979170;28;20445;-79
2021/12/19 03:25:16;;;;;;;26.02;13.52;;;;;;;;;;4999687;28;20140;-78
2021/12/19 03:27:42;;;;;;;22.67;11.88;;;;;;;;;;5014375;28;20458;-79
2021/12/19 03:30:09;;;;;;;24.17;12.93;;;;;;;;;;5015982;28;20459;-79
2021/12/19 03:32:35;;;;;;;24.70;13.90;;;;;;;;;;5014703;28;20034;-79
2021/12/19 03:35:01;;;;;;;26.20;13.55;;;;;;;;;;5014799;28;20104;-78
2021/12/19 03:37:27;;;;;;;27.55;13.18;;;;;;;;;;5013861;28;20030;-78
2021/12/19 03:40:07;;;;;;;24.77;11.98;;;;;;;;;;5013619;28;20026;-78
2021/12/19 03:42:33;;;;;;;23.00;14.70;;;;;;;;;;5013006;28;20399;-78
2021/12/19 03:44:59;;;;;;;23.88;13.60;;;;;;;;;;5010687;28;20107;-79
2021/12/19 03:47:26;;;;;;;25.02;12.32;;;;;;;;;;5012928;28;20498;-79
2021/12/19 03:49:52;;;;;;;23.90;11.38;;;;;;;;;;5013841;28;20438;-78
2021/12/19 03:52:18;;;;;;;25.30;11.80;;;;;;;;;;5014640;28;20029;-78
2021/12/19 03:54:44;;;;;;;23.30;11.88;;;;;;;;;;5015132;28;20026;-79
2021/12/19 03:57:10;;;;;;;22.40;12.25;;;;;;;;;;5013178;28;20071;-78
2021/12/19 03:59:36;;;;;;;19.13;11.52;;;;;;;;;;5013687;28;20479;-79
2021/12/19 04:02:03;;;;;;;25.13;12.20;;;;;;;;;;5013334;28;20033;-79
2021/12/19 04:04:35;;;;;;;20.17;11.25;;;;;;;;;;5013917;28;20125;-78
2021/12/19 04:07:01;;;;;;;23.48;13.13;;;;;;;;;;5014597;28;20406;-79
2021/12/19 04:09:27;;;;;;;20.60;10.63;;;;;;;;;;5013612;28;20030;-79
2021/12/19 04:11:55;;;;;;;22.48;11.02;;;;;;;;;;5018002;28;20557;-79
2021/12/19 04:14:24;;;;;;;21.00;11.75;;;;;;;;;;5017825;28;20100;-79
2021/12/19 04:16:50;;;;;;;21.75;10.98;;;;;;;;;;5018024;28;20123;-79
2021/12/19 04:19:20;;;;;;;21.90;10.70;;;;;;;;;;5015870;28;20026;-80
2021/12/19 04:21:46;;;;;;;20.90;11.10;;;;;;;;;;5017512;28;20041;-78
2021/12/19 04:24:12;;;;;;;21.70;11.23;;;;;;;;;;5019106;28;20030;-79
2021/12/19 04:26:38;;;;;;;21.35;11.52;;;;;;;;;;5016995;28;20487;-79
2021/12/19 04:29:04;;;;;;;20.90;10.95;;;;;;;;;;5017919;28;20040;-79
2021/12/19 04:31:30;;;;;;;26.05;12.65;;;;;;;;;;5017911;28;20034;-79
2021/12/19 04:33:56;;;;;;;21.98;11.88;;;;;;;;;;5019165;28;20026;-79
2021/12/19 04:36:28;;;;;;;21.70;12.45;;;;;;;;;;5019751;28;20041;-79
2021/12/19 05:01:34;;;;;;;19.40;10.43;;;;;;;;;;5018949;28;20115;-79
2021/12/19 05:06:07;;;;;;;21.45;10.43;;;;;;;;;;5017846;28;20030;-78
2021/12/19 05:14:23;;;;;;;19.30;9.82;;;;;;;;;;5011186;28;20038;-78
2021/12/19 05:16:50;;;;;;;19.73;10.35;;;;;;;;;;5017478;28;20022;-79
2021/12/19 05:19:25;;;;;;;17.90;9.38;;;;;;;;;;5014481;28;20026;-80
2021/12/19 05:21:55;;;;;;;21.35;10.65;;;;;;;;;;5016562;28;20041;-79
2021/12/19 05:24:45;;;;;;;17.63;10.82;;;;;;;;;;5016398;28;20030;-79
2021/12/19 05:27:08;;;;;;;16.23;9.52;;;;;;;;;;5016171;28;20029;-78
2021/12/19 05:29:35;;;;;;;16.73;9.20;;;;;;;;;;5017766;28;20105;-79
2021/12/19 05:32:01;;;;;;;18.67;10.90;;;;;;;;;;5011603;28;20029;-77
2021/12/19 05:34:29;;;;;;;17.48;10.30;;;;;;;;;;5015200;28;20105;-78
2021/12/19 05:45:19;;;;;;;13.90;8.40;;;;;;;;;;5012516;28;20126;-78
2021/12/19 05:47:46;;;;;;;16.73;9.10;;;;;;;;;;5019446;28;20018;-80
2021/12/19 05:50:13;;;;;;;16.77;9.38;;;;;;;;;;5013706;28;20046;-79
2021/12/19 05:52:39;;;;;;;16.10;8.95;;;;;;;;;;5014174;28;20049;-78
2021/12/19 05:55:06;;;;;;;15.88;9.70;;;;;;;;;;5017115;28;20088;-79
2021/12/19 05:57:32;;;;;;;17.98;8.65;;;;;;;;;;5016564;28;20053;-80
2021/12/19 05:59:58;;;;;;;15.80;9.40;;;;;;;;;;5017476;28;20398;-78
2021/12/19 06:02:24;;;;;;;15.85;8.73;;;;;;;;;;5032500;28;20483;-79
2021/12/19 06:04:50;;;;;;;17.00;9.30;;;;;;;;;;5014510;28;20117;-78
2021/12/19 06:07:16;;;;;;;17.70;9.27;;;;;;;;;;5011723;28;20100;-79
2021/12/19 06:09:42;;;;;;;16.42;9.05;;;;;;;;;;5015145;28;20097;-79
2021/12/19 06:12:09;;;;;;;15.95;8.00;;;;;;;;;;5015207;28;20044;-78
2021/12/19 06:14:35;;;;;;;16.98;8.50;;;;;;;;;;5016764;28;20036;-79
2021/12/19 06:17:02;;;;;;;17.40;9.27;;;;;;;;;;5012038;28;20053;-78
2021/12/19 06:19:28;;;;;;;16.08;8.10;;;;;;;;;;5012261;28;20033;-80
2021/12/19 06:21:54;;;;;;;16.10;8.13;;;;;;;;;;5012540;28;20030;-78
2021/12/19 06:24:20;;;;;;;14.85;7.95;;;;;;;;;;5028473;28;20582;-80
2021/12/19 06:26:47;;;;;;;16.65;7.95;;;;;;;;;;5014901;28;20512;-79
2021/12/19 06:29:13;;;;;;;16.58;8.93;;;;;;;;;;5008778;28;20018;-78
2021/12/19 06:31:39;;;;;;;17.25;8.27;;;;;;;;;;5013723;28;20030;-78
2021/12/19 06:34:05;;;;;;;17.50;8.35;;;;;;;;;;5010330;28;20033;-79
2021/12/19 06:36:31;;;;;;;19.88;9.90;;;;;;;;;;5013592;28;20331;-79
2021/12/19 06:38:58;;;;;;;18.27;9.30;;;;;;;;;;5012426;28;20064;-78
2021/12/19 06:41:24;;;;;;;20.35;10.30;;;;;;;;;;5011463;28;20057;-78
2021/12/19 06:43:50;;;;;;;15.30;9.02;;;;;;;;;;5012757;28;20030;-78
2021/12/19 06:46:16;;;;;;;19.05;9.57;;;;;;;;;;5012823;28;20497;-79
2021/12/19 06:48:42;;;;;;;16.67;8.70;;;;;;;;;;5014192;28;20025;-78
2021/12/19 06:51:08;;;;;;;16.77;8.27;;;;;;;;;;5012708;28;20088;-78
2021/12/19 06:53:35;;;;;;;16.83;8.57;;;;;;;;;;5013407;28;20036;-78
2021/12/19 06:56:01;;;;;;;17.52;9.13;;;;;;;;;;5012011;28;20033;-78
2021/12/19 06:58:27;;;;;;;19.00;9.68;;;;;;;;;;5013026;28;20026;-82
2021/12/19 07:00:53;;;;;;;19.77;8.88;;;;;;;;;;5015875;28;20574;-79
2021/12/19 07:03:23;;;;;;;18.77;9.02;;;;;;;;;;5014329;28;20042;-79
2021/12/19 07:05:49;;;;;;;20.02;9.02;;;;;;;;;;5014404;28;20567;-79
2021/12/19 07:08:16;;;;;;;21.38;9.52;;;;;;;;;;5012506;28;20050;-79
2021/12/19 07:10:42;;;;;;;16.23;8.50;;;;;;;;;;5013928;28;20404;-78
2021/12/19 07:13:08;;;;;;;17.77;9.23;;;;;;;;;;5010312;28;20032;-79
2021/12/19 07:15:34;;;;;;;15.15;8.02;;;;;;;;;;5012065;28;20046;-78
2021/12/19 07:18:03;;;;;;;17.52;9.25;;;;;;;;;;5009635;28;20022;-78
2021/12/19 07:20:30;;;;;;;19.40;9.63;;;;;;;;;;5012630;28;20025;-79
2021/12/19 07:22:56;;;;;;;18.52;10.50;;;;;;;;;;5014497;28;20030;-79
2021/12/19 07:25:23;;;;;;;16.60;8.60;;;;;;;;;;5015500;28;20029;-79
2021/12/19 07:27:49;;;;;;;18.27;9.18;;;;;;;;;;5016279;28;20033;-79
2021/12/19 07:30:15;;;;;;;17.42;9.57;;;;;;;;;;5013362;28;20030;-79
2021/12/19 07:32:41;;;;;;;16.60;8.80;;;;;;;;;;5011090;28;20033;-79
2021/12/19 07:35:09;;;;;;;16.00;8.82;;;;;;;;;;5014403;28;20099;-78
2021/12/19 07:37:37;;;;;;;17.83;9.60;;;;;;;;;;5027727;28;20510;-79
2021/12/19 07:40:13;;;;;;;13.82;7.30;;;;;;;;;;5012380;28;20529;-78
2021/12/19 07:42:39;;;;;;;14.40;6.93;;;;;;;;;;5008609;28;20383;-80
2021/12/19 07:45:05;;;;;;;16.67;8.25;;;;;;;;;;5009672;28;20152;-79
2021/12/19 07:47:31;;;;;;;17.25;8.27;;;;;;;;;;5008482;28;20029;-78
2021/12/19 07:49:57;;;;;;;16.95;9.07;;;;;;;;;;5012168;28;20053;-79
2021/12/19 07:52:23;;;;;;;12.45;6.90;;;;;;;;;;5011653;28;20073;-78
2021/12/19 07:54:49;;;;;;;15.07;7.82;;;;;;;;;;5012290;28;20029;-78
2021/12/19 07:57:15;;;;;;;15.00;7.80;;;;;;;;;;5013820;28;20056;-79
2021/12/19 07:59:41;;;;;;;15.20;8.98;;;;;;;;;;5011086;28;20515;-79
2021/12/19 08:02:08;;;;;;;14.93;7.85;;;;;;;;;;5007168;28;20056;-79
2021/12/19 08:04:40;;;;;;;14.32;7.82;;;;;;;;;;5011812;28;20415;-79
2021/12/19 08:07:08;;;;;;;15.38;7.45;;;;;;;;;;5015904;28;20033;-79
2021/12/19 08:09:57;;;;;;;15.30;7.70;;;;;;;;;;5004670;28;20483;-79
2021/12/19 08:12:23;;;;;;;15.70;7.65;;;;;;;;;;4997609;28;20039;-78
2021/12/19 08:14:49;;;;;;;17.40;7.35;;;;;;;;;;5012037;28;20069;-79
2021/12/19 08:17:17;;;;;;;13.38;7.63;;;;;;;;;;5011206;28;20450;-80
2021/12/19 08:19:43;;;;;;;15.10;7.90;;;;;;;;;;5010934;28;20109;-79
2021/12/19 08:22:09;;;;;;;13.48;7.32;;;;;;;;;;5013882;28;20026;-78
2021/12/19 08:24:36;;;;;;;15.18;7.35;;;;;;;;;;5008280;28;20041;-79
2021/12/19 08:27:02;;;;;;;13.75;8.40;;;;;;;;;;5006033;28;20034;-79
2021/12/19 08:29:28;;;;;;;12.25;6.32;;;;;;;;;;5013810;28;20036;-78
2021/12/19 08:31:54;;;;;;;12.77;6.47;;;;;;;;;;5017730;28;20108;-79
2021/12/19 08:34:21;;;;;;;13.93;6.32;;;;;;;;;;5011812;28;20391;-78
2021/12/19 08:36:47;;;;;;;11.68;6.82;;;;;;;;;;5002663;28;20038;-79
2021/12/19 08:39:13;;;;;;;12.90;6.40;;;;;;;;;;5007206;28;20053;-79
2021/12/19 08:47:56;;;;;;;15.05;6.68;;;;;;;;;;5007897;28;19912;-79
2021/12/19 08:50:23;;;;;;;13.35;6.28;;;;;;;;;;5012629;28;20176;-79
2021/12/19 08:52:49;;;;;;;13.45;6.80;;;;;;;;;;5013859;28;20041;-79
2021/12/19 08:55:15;;;;;;;12.35;6.28;;;;;;;;;;5012826;28;20041;-80
2021/12/19 08:57:41;;;;;;;10.85;6.25;;;;;;;;;;5016905;28;20030;-79
2021/12/19 09:00:10;;;;;;;11.13;5.90;;;;;;;;;;5019320;28;20113;-79
2021/12/19 09:02:37;;;;;;;12.13;6.28;;;;;;;;;;5020096;28;20095;-79
2021/12/19 09:05:03;;;;;;;11.00;5.95;;;;;;;;;;5017354;28;20076;-79
2021/12/19 09:07:29;;;;;;;11.95;6.45;;;;;;;;;;5017217;28;20026;-80
2021/12/19 09:09:55;;;;;;;11.15;6.30;;;;;;;;;;5017412;28;20038;-78
2021/12/19 09:12:21;;;;;;;11.68;6.75;;;;;;;;;;5016689;28;20030;-80
2021/12/19 09:14:47;;;;;;;15.73;6.35;;;;;;;;;;5018356;28;20041;-79
2021/12/19 09:17:13;;;;;;;13.48;5.97;;;;;;;;;;5020468;28;20029;-78
2021/12/19 09:19:39;;;;;;;11.55;6.10;;;;;;;;;;5019629;28;20137;-79
2021/12/19 09:22:05;;;;;;;12.32;6.10;;;;;;;;;;5018742;28;20022;-79
2021/12/19 09:24:32;;;;;;;11.85;6.25;;;;;;;;;;5018842;28;20034;-78
2021/12/19 09:26:58;;;;;;;10.25;5.82;;;;;;;;;;5018297;28;20051;-79
2021/12/19 09:29:28;;;;;;;11.45;5.82;;;;;;;;;;5018999;28;20057;-80
2021/12/19 09:31:54;;;;;;;10.70;5.53;;;;;;;;;;5018332;28;20018;-80
2021/12/19 09:34:20;;;;;;;10.55;5.50;;;;;;;;;;5017880;28;20123;-80
2021/12/19 09:36:46;;;;;;;11.15;4.78;;;;;;;;;;5016318;28;20476;-79
2021/12/19 09:39:12;;;;;;;10.77;5.00;;;;;;;;;;5017877;28;20034;-79
2021/12/19 09:41:44;;;;;;;9.77;5.03;;;;;;;;;;5018313;28;20026;-79
2021/12/19 09:44:13;;;;;;;9.73;5.40;;;;;;;;;;5017173;28;20079;-80
2021/12/19 09:46:41;;;;;;;7.53;4.10;;;;;;;;;;5014811;28;20439;-80
2021/12/19 09:49:08;;;;;;;9.43;4.90;;;;;;;;;;4999878;28;20032;-79
2021/12/19 09:51:34;;;;;;;10.60;4.53;;;;;;;;;;5017671;28;20069;-80
2021/12/19 09:54:00;;;;;;;7.22;3.95;;;;;;;;;;5017073;28;20056;-80
2021/12/19 09:56:27;;;;;;;11.88;5.80;;;;;;;;;;5016796;28;20025;-80
2021/12/19 09:58:53;;;;;;;9.55;5.03;;;;;;;;;;5006575;28;20500;-79
2021/12/19 10:01:19;;;;;;;10.32;5.07;;;;;;;;;;5007111;28;20032;-80
2021/12/19 10:03:45;;;;;;;9.23;4.78;;;;;;;;;;5018058;28;20026;-80
2021/12/19 10:06:11;;;;;;;8.98;4.68;;;;;;;;;;5016074;28;22381;-80
2021/12/19 10:08:38;;;;;;;8.40;4.57;;;;;;;;;;5015181;28;20061;-80
2021/12/19 10:11:12;;;;;;;9.50;5.00;;;;;;;;;;5016919;28;20029;-80
2021/12/19 10:13:38;;;;;;;11.68;5.78;;;;;;;;;;5017633;28;20018;-79
2021/12/19 10:16:24;;;;;;;10.00;4.95;;;;;;;;;;5016945;28;20037;-79
2021/12/19 10:18:54;;;;;;;10.20;4.82;;;;;;;;;;5015868;28;20475;-81
2021/12/19 10:21:20;;;;;;;10.68;4.68;;;;;;;;;;5016978;28;20079;-80
2021/12/19 10:23:46;;;;;;;8.55;4.65;;;;;;;;;;5018060;28;20033;-80
2021/12/19 10:26:13;;;;;;;9.07;4.72;;;;;;;;;;5016366;28;20033;-80
2021/12/19 10:28:54;;;;;;;8.63;4.85;;;;;;;;;;5016772;28;20273;-80
2021/12/19 10:31:21;;;;;;;8.25;4.50;;;;;;;;;;5015503;28;20030;-80
2021/12/19 10:33:47;;;;;;;8.30;4.47;;;;;;;;;;5014675;28;20022;-81
2021/12/19 10:36:14;;;;;;;9.52;3.95;;;;;;;;;;4996898;28;20022;-80
2021/12/19 10:38:44;;;;;;;8.35;5.10;;;;;;;;;;5005708;28;20022;-81
2021/12/19 10:41:15;;;;;;;8.15;3.83;;;;;;;;;;5017335;28;20060;-80
2021/12/19 10:43:46;;;;;;;7.35;3.47;;;;;;;;;;5017784;28;20030;-80
2021/12/19 10:46:12;;;;;;;7.50;4.05;;;;;;;;;;5018423;28;20064;-79
2021/12/19 10:48:39;;;;;;;8.07;4.22;;;;;;;;;;5017569;28;20022;-80
2021/12/19 10:51:05;;;;;;;7.50;3.63;;;;;;;;;;5006572;28;20497;-80
2021/12/19 10:53:31;;;;;;;6.60;3.80;;;;;;;;;;4998487;28;20037;-80
2021/12/19 10:55:58;;;;;;;8.10;4.10;;;;;;;;;;4996714;28;20023;-80
2021/12/19 10:58:26;;;;;;;7.35;3.83;;;;;;;;;;5002696;28;20438;-81
2021/12/19 11:01:04;;;;;;;7.47;4.28;;;;;;;;;;5015440;28;20065;-82
2021/12/19 11:03:38;;;;;;;7.32;4.00;;;;;;;;;;5010951;28;20087;-79
2021/12/19 11:06:15;;;;;;;6.55;3.72;;;;;;;;;;5016732;28;20064;-80
2021/12/19 11:08:42;;;;;;;6.72;3.30;;;;;;;;;;5008398;28;20033;-80
2021/12/19 11:11:08;;;;;;;5.93;3.10;;;;;;;;;;5009891;28;20049;-80
2021/12/19 11:13:35;;;;;;;7.10;3.40;;;;;;;;;;5015698;28;20030;-81
2021/12/19 11:16:01;;;;;;;6.97;3.63;;;;;;;;;;5014313;28;20413;-80
2021/12/19 11:18:27;;;;;;;5.70;3.15;;;;;;;;;;5008717;28;20391;-80
2021/12/19 11:20:53;;;;;;;5.45;2.95;;;;;;;;;;4996608;28;20045;-81
2021/12/19 11:23:19;;;;;;;6.63;3.63;;;;;;;;;;4995590;28;20026;-80
2021/12/19 11:25:45;;;;;;;5.93;3.67;;;;;;;;;;5009738;28;20394;-80
2021/12/19 11:28:12;;;;;;;6.40;3.03;;;;;;;;;;5010982;28;20106;-80
2021/12/19 11:30:38;;;;;;;7.38;3.65;;;;;;;;;;4995635;28;20158;-80
2021/12/19 11:33:04;;;;;;;6.70;3.33;;;;;;;;;;5012513;28;20026;-79
2021/12/19 11:35:36;;;;;;;6.65;3.38;;;;;;;;;;5014023;28;20033;-78
2021/12/19 11:38:03;;;;;;;7.22;3.70;;;;;;;;;;5015252;28;20099;-81
2021/12/19 11:40:31;;;;;;;6.80;3.80;;;;;;;;;;5014595;28;20506;-79
2021/12/19 11:43:08;;;;;;;6.65;2.97;;;;;;;;;;5015180;28;20439;-79
2021/12/19 11:48:09;;;;;;;7.85;3.88;;;;;;;;;;5015567;28;20049;-79
2021/12/19 11:50:37;;;;;;;6.78;3.38;;;;;;;;;;5015642;28;20045;-79
2021/12/19 11:53:09;;;;;;;8.45;3.72;;;;;;;;;;5015655;28;20117;-78
2021/12/19 11:55:43;;;;;;;8.63;4.25;;;;;;;;;;5014302;28;20053;-79
2021/12/19 11:58:09;;;;;;;7.35;4.00;;;;;;;;;;5007734;28;20023;-80
2021/12/19 12:00:43;;;;;;;8.48;4.10;;;;;;;;;;5008160;28;20026;-78
2021/12/19 12:03:12;;;;;;;11.15;4.43;;;;;;;;;;5027807;28;20021;-79
2021/12/19 12:05:40;;;;;;;7.22;3.92;;;;;;;;;;5009445;28;20038;-79
2021/12/19 12:08:07;;;;;;;8.52;4.00;;;;;;;;;;5008776;28;20030;-81
2021/12/19 12:13:22;;;;;;;8.68;4.55;;;;;;;;;;4996642;28;20027;-78
2021/12/19 12:15:53;;;;;;;8.48;4.13;;;;;;;;;;5009173;28;20097;-78
2021/12/19 12:18:38;;;;;;;7.85;4.10;;;;;;;;;;5011152;28;20075;-78
2021/12/19 12:21:29;;;;;;;7.55;3.83;;;;;;;;;;5011419;28;20033;-79
2021/12/19 12:23:56;;;;;;;7.70;3.72;;;;;;;;;;5010344;28;20029;-81
2021/12/19 12:26:24;;;;;;;7.13;3.22;;;;;;;;;;5009329;28;20064;-80
2021/12/19 12:28:50;;;;;;;7.25;3.47;;;;;;;;;;5004684;28;20179;-79
2021/12/19 12:31:16;;;;;;;8.25;4.07;;;;;;;;;;5009842;28;20400;-79
2021/12/19 12:33:43;;;;;;;6.60;3.45;;;;;;;;;;5016053;28;20041;-79
2021/12/19 12:36:10;;;;;;;8.43;4.68;;;;;;;;;;5017703;28;20029;-79
2021/12/19 12:38:36;;;;;;;8.52;3.60;;;;;;;;;;5017809;28;20030;-79
2021/12/19 12:41:08;;;;;;;6.82;3.60;;;;;;;;;;5017128;28;20049;-79
2021/12/19 12:43:43;;;;;;;7.65;3.63;;;;;;;;;;5016930;28;20030;-78
2021/12/19 12:46:16;;;;;;;6.28;3.33;;;;;;;;;;5016959;28;20037;-79
2021/12/19 12:49:01;;;;;;;6.47;3.28;;;;;;;;;;5017121;28;20034;-79
2021/12/19 12:51:28;;;;;;;6.97;3.10;;;;;;;;;;5003386;28;20046;-79
2021/12/19 12:54:14;;;;;;;7.88;3.63;;;;;;;;;;5012774;28;20026;-79
2021/12/19 12:56:47;;;;;;;8.07;3.50;;;;;;;;;;5011341;28;20033;-80
2021/12/19 12:59:14;;;;;;;7.70;3.22;;;;;;;;;;5017256;28;20033;-80
2021/12/19 13:01:47;;;;;;;6.60;3.65;;;;;;;;;;5018106;28;20034;-79
2021/12/19 13:04:19;;;;;;;8.60;4.97;;;;;;;;;;5018460;28;20044;-79
2021/12/19 13:06:48;;;;;;;8.17;4.33;;;;;;;;;;5017250;28;20033;-79
2021/12/19 13:09:29;;;;;;;6.72;3.63;;;;;;;;;;4999778;28;20030;-79
2021/12/19 13:12:13;;;;;;;7.28;4.00;;;;;;;;;;5012293;28;20025;-78
2021/12/19 13:14:41;;;;;;;6.65;3.38;;;;;;;;;;5018005;28;20549;-80
2021/12/19 13:17:08;;;;;;;5.95;3.05;;;;;;;;;;5017729;28;20037;-79
2021/12/19 13:19:48;;;;;;;8.27;3.90;;;;;;;;;;5016440;28;20052;-78
2021/12/19 13:22:14;;;;;;;6.47;4.50;;;;;;;;;;5017903;28;20069;-79
2021/12/19 13:24:41;;;;;;;6.55;2.88;;;;;;;;;;5014638;28;20033;-79
2021/12/19 13:27:07;;;;;;;7.03;4.22;;;;;;;;;;5018008;28;20033;-80
2021/12/19 13:29:33;;;;;;;6.88;4.13;;;;;;;;;;5017119;28;20040;-79
2021/12/19 13:32:18;;;;;;;7.25;4.45;;;;;;;;;;4999758;28;20109;-79
2021/12/19 13:34:44;;;;;;;7.85;4.18;;;;;;;;;;5012777;28;20483;-79
2021/12/19 13:37:10;;;;;;;6.72;3.55;;;;;;;;;;5017988;28;20037;-80
2021/12/19 13:39:37;;;;;;;6.20;3.42;;;;;;;;;;5009911;28;20117;-80
2021/12/19 13:42:09;;;;;;;6.88;4.10;;;;;;;;;;5016921;28;20030;-80
2021/12/19 13:44:36;;;;;;;;;;;;;;;;;;5018618;28;20029;-80
2021/12/19 13:47:22;;;;;;;5.65;3.22;;;;;;;;;;5018245;28;20287;-82
2021/12/19 13:49:49;;;;;;;6.43;3.03;;;;;;;;;;4996421;28;20129;-79
2021/12/19 13:52:15;;;;;;;5.88;3.20;;;;;;;;;;5011355;28;20034;-80
2021/12/19 13:54:41;;;;;;;6.82;3.60;;;;;;;;;;5017364;28;20014;-80
2021/12/19 13:57:23;;;;;;;10.73;4.03;;;;;;;;;;5015885;28;20060;-80
2021/12/19 13:59:49;;;;;;;5.97;3.33;;;;;;;;;;5015260;28;20026;-79
2021/12/19 14:02:15;;;;;;;7.07;4.57;;;;;;;;;;5015635;28;20026;-80
2021/12/19 14:04:42;;;;;;;7.00;3.45;;;;;;;;;;5010395;28;20037;-80
2021/12/19 14:07:14;;;;;;;7.00;3.53;;;;;;;;;;5016695;28;20034;-79
2021/12/19 14:09:46;;;;;;;5.55;3.20;;;;;;;;;;5014368;28;20033;-79
2021/12/19 14:12:26;;;;;;;7.28;4.03;;;;;;;;;;5008503;28;20053;-81
2021/12/19 14:14:52;;;;;;;6.32;3.53;;;;;;;;;;5002030;28;20361;-80
2021/12/19 14:17:18;;;;;;;7.10;3.67;;;;;;;;;;5014890;28;20115;-80
2021/12/19 14:19:50;;;;;;;7.40;4.13;;;;;;;;;;4998252;28;20034;-80
2021/12/19 14:22:18;;;;;;;6.68;3.55;;;;;;;;;;5012354;28;20029;-80
2021/12/19 14:24:45;;;;;;;8.05;3.60;;;;;;;;;;5017647;28;20390;-82
2021/12/19 14:27:28;;;;;;;6.78;3.55;;;;;;;;;;5015919;28;20515;-81
2021/12/19 14:30:00;;;;;;;7.28;3.45;;;;;;;;;;5000398;28;20032;-81
2021/12/19 14:32:34;;;;;;;7.47;3.70;;;;;;;;;;4997381;28;20027;-81
2021/12/19 14:35:06;;;;;;;7.80;3.90;;;;;;;;;;5015101;28;20033;-81
2021/12/19 14:37:33;;;;;;;6.95;4.35;;;;;;;;;;5010698;28;20041;-79
2021/12/19 14:40:12;;;;;;;7.75;4.03;;;;;;;;;;5004177;28;20094;-81
2021/12/19 14:42:40;;;;;;;7.25;3.97;;;;;;;;;;5014116;28;20022;-80
2021/12/19 14:45:07;;;;;;;8.73;4.60;;;;;;;;;;5012082;28;20030;-80
2021/12/19 14:47:38;;;;;;;7.35;4.20;;;;;;;;;;5014118;28;20064;-79
2021/12/19 14:50:15;;;;;;;8.85;4.05;;;;;;;;;;5004575;28;20036;-79
2021/12/19 14:52:55;;;;;;;7.82;4.40;;;;;;;;;;4995128;28;20451;-79
2021/12/19 14:55:24;;;;;;;7.13;4.00;;;;;;;;;;5008095;28;20037;-79
2021/12/19 14:57:51;;;;;;;8.55;4.30;;;;;;;;;;5010836;28;21577;-79
2021/12/19 15:00:17;;;;;;;7.70;4.53;;;;;;;;;;4993793;28;20121;-79
2021/12/19 15:02:43;;;;;;;8.02;4.60;;;;;;;;;;5013331;28;20061;-79
2021/12/19 15:05:10;;;;;;;9.73;4.63;;;;;;;;;;5013893;28;20088;-80
2021/12/19 15:07:42;;;;;;;8.18;4.40;;;;;;;;;;5010762;28;20096;-79
2021/12/19 15:10:09;;;;;;;6.78;4.00;;;;;;;;;;5014554;28;20022;-78
2021/12/19 15:12:35;;;;;;;8.77;4.93;;;;;;;;;;5012496;28;20033;-80
2021/12/19 15:15:01;;;;;;;7.88;5.07;;;;;;;;;;5013550;28;20121;-80
2021/12/19 15:17:27;;;;;;;9.77;4.45;;;;;;;;;;5013963;28;20077;-80
2021/12/19 15:19:53;;;;;;;7.75;3.92;;;;;;;;;;5014522;28;20025;-80
2021/12/19 15:25:23;;;;;;;7.40;4.45;;;;;;;;;;5014721;28;20032;-80
2021/12/19 15:27:49;;;;;;;7.53;4.25;;;;;;;;;;5014610;28;20040;-80
2021/12/19 15:30:16;;;;;;;7.68;3.88;;;;;;;;;;5013090;28;20108;-78
2021/12/19 15:32:42;;;;;;;7.50;4.30;;;;;;;;;;5013629;28;20021;-80
2021/12/19 15:35:09;;;;;;;7.55;3.97;;;;;;;;;;5011862;28;20033;-80
2021/12/19 15:37:36;;;;;;;8.70;4.18;;;;;;;;;;5011541;28;20111;-79
2021/12/19 15:40:02;;;;;;;7.03;4.30;;;;;;;;;;5007675;28;20523;-79
2021/12/19 15:42:28;;;;;;;7.68;4.28;;;;;;;;;;5017654;28;20033;-79
2021/12/19 15:44:54;;;;;;;8.63;4.85;;;;;;;;;;5012469;28;20372;-80
2021/12/19 15:47:20;;;;;;;8.48;4.78;;;;;;;;;;5011405;28;20092;-79
2021/12/19 15:49:47;;;;;;;8.85;4.88;;;;;;;;;;5009635;28;20050;-80
2021/12/19 15:52:12;;;;;;;8.32;5.30;;;;;;;;;;5009598;28;20120;-80